Waverly, MN (55390)

5:42 PM CDT on October 01, 2016 (GMT -0500)
South of Waverly | | Change Station

Elev 1004 ft 45.04 °N, 93.99 °W | Updated 27 seconds ago

Clear
Clear
68.2 °F
Feels Like 68.2 °F
N
2.5
Wind Variable Wind from North
Gusts 2.5 mph

Today
High -- | Low -- °F
--% Chance of Precip.
Yesterday
High -- | Low -- °F
Precip. -- in
Pressure 30.09 in
Visibility 10.0 miles
Clouds Clear
Dew Point 56 °F
Humidity 66%
Rainfall in
Snow Depth Not available.
7:14 AM 6:55 PM
New Moon, 1% visible
METAR KCFE 012234Z AUTO 05004KT 10SM CLR 21/11 A3009 RMK AO2 T02080113
Pressure 30.09 in
Visibility 10.0 miles
Clouds Clear
Dew Point 56 °F
Humidity 66%
Rainfall in
Snow Depth Not available.
7:14 AM 6:55 PM
New Moon, 1% visible
METAR KCFE 012234Z AUTO 05004KT 10SM CLR 21/11 A3009 RMK AO2 T02080113

10-Day Weather Forecast

Almanac

Astronomy

Oct. 01, 2016 Rise Set
Actual Time
Civil Twilight
Nautical Twilight
Astronomical Twilight
Moon
Length of Visible Light
Length of Day
Tomorrow will be .
, % of the Moon is Illuminated

Today's Extremes

State Highs State Lows

Community

WunderPhotos

Upload Photos

1,943,045 photos uploaded!

WunderBlog® & News

Nearby

Air Quality

  Air Quality AQ Index Pollutant
Not available.

Snow Depth

Station Depth Elevation

Earthquake Activity

City Distance Mag. Time & Date
Minimum magnitude displayed is 2.5.

Coastal Water Temperatures

Place Temperature

Stations

Nearby Weather Stations

Station Location Temp. Windchill Dew Point Humidity Wind Precip. Elev Updated Type
                   

Watches & Warnings

There are currently no watches in effect.